sensor_id;sensor_type;location;lat;lon;timestamp;P1;durP1;ratioP1;P2;durP2;ratioP2
19863;SDS011;10094;48.820;9.226;2022-09-09T00:08:07;7.18;;;3.88;;
19863;SDS011;10094;48.820;9.226;2022-09-09T00:15:02;5.85;;;3.40;;
19863;SDS011;10094;48.820;9.226;2022-09-09T00:21:57;5.57;;;3.30;;
19863;SDS011;10094;48.820;9.226;2022-09-09T00:28:52;5.20;;;3.00;;
19863;SDS011;10094;48.820;9.226;2022-09-09T00:35:52;7.78;;;3.00;;
19863;SDS011;10094;48.820;9.226;2022-09-09T00:42:42;5.50;;;3.03;;
19863;SDS011;10094;48.820;9.226;2022-09-09T00:57:26;7.55;;;2.67;;
19863;SDS011;10094;48.820;9.226;2022-09-09T01:04:09;4.43;;;2.70;;
19863;SDS011;10094;48.820;9.226;2022-09-09T01:11:10;5.43;;;2.55;;
19863;SDS011;10094;48.820;9.226;2022-09-09T01:18:10;10.07;;;2.97;;
19863;SDS011;10094;48.820;9.226;2022-09-09T01:32:48;6.35;;;3.00;;
19863;SDS011;10094;48.820;9.226;2022-09-09T01:39:32;4.97;;;2.80;;
19863;SDS011;10094;48.820;9.226;2022-09-09T01:46:20;7.00;;;2.90;;
19863;SDS011;10094;48.820;9.226;2022-09-09T01:53:05;4.20;;;2.45;;
19863;SDS011;10094;48.820;9.226;2022-09-09T02:00:02;3.15;;;2.08;;
19863;SDS011;10094;48.820;9.226;2022-09-09T02:06:55;5.15;;;2.30;;
19863;SDS011;10094;48.820;9.226;2022-09-09T02:13:44;4.28;;;2.55;;
19863;SDS011;10094;48.820;9.226;2022-09-09T02:20:30;5.13;;;2.10;;
19863;SDS011;10094;48.820;9.226;2022-09-09T02:27:16;5.55;;;2.17;;
19863;SDS011;10094;48.820;9.226;2022-09-09T02:34:01;5.60;;;2.53;;
19863;SDS011;10094;48.820;9.226;2022-09-09T02:40:45;7.15;;;3.00;;
19863;SDS011;10094;48.820;9.226;2022-09-09T02:47:34;4.93;;;2.22;;
19863;SDS011;10094;48.820;9.226;2022-09-09T02:54:29;6.68;;;2.35;;
19863;SDS011;10094;48.820;9.226;2022-09-09T03:01:17;5.10;;;2.15;;
19863;SDS011;10094;48.820;9.226;2022-09-09T03:08:00;4.55;;;2.08;;
19863;SDS011;10094;48.820;9.226;2022-09-09T03:14:44;2.65;;;2.05;;
19863;SDS011;10094;48.820;9.226;2022-09-09T03:21:28;5.43;;;2.30;;
19863;SDS011;10094;48.820;9.226;2022-09-09T03:28:11;6.05;;;2.40;;
19863;SDS011;10094;48.820;9.226;2022-09-09T03:34:53;7.97;;;3.83;;
19863;SDS011;10094;48.820;9.226;2022-09-09T03:41:36;5.35;;;2.97;;
19863;SDS011;10094;48.820;9.226;2022-09-09T03:48:19;5.50;;;2.72;;
19863;SDS011;10094;48.820;9.226;2022-09-09T03:55:02;6.15;;;2.63;;
19863;SDS011;10094;48.820;9.226;2022-09-09T04:01:44;7.90;;;2.47;;
19863;SDS011;10094;48.820;9.226;2022-09-09T04:08:27;4.70;;;2.13;;
19863;SDS011;10094;48.820;9.226;2022-09-09T04:15:10;5.90;;;2.45;;
19863;SDS011;10094;48.820;9.226;2022-09-09T04:21:53;4.43;;;1.95;;
19863;SDS011;10094;48.820;9.226;2022-09-09T04:28:37;3.35;;;1.95;;
19863;SDS011;10094;48.820;9.226;2022-09-09T04:35:26;2.60;;;1.92;;
19863;SDS011;10094;48.820;9.226;2022-09-09T04:42:10;6.03;;;1.70;;
19863;SDS011;10094;48.820;9.226;2022-09-09T04:48:54;6.50;;;2.03;;
19863;SDS011;10094;48.820;9.226;2022-09-09T04:55:41;4.35;;;2.20;;
19863;SDS011;10094;48.820;9.226;2022-09-09T05:02:24;6.30;;;2.30;;
19863;SDS011;10094;48.820;9.226;2022-09-09T05:09:12;5.97;;;2.10;;
19863;SDS011;10094;48.820;9.226;2022-09-09T05:15:55;6.22;;;2.22;;
19863;SDS011;10094;48.820;9.226;2022-09-09T05:22:37;4.45;;;2.10;;
19863;SDS011;10094;48.820;9.226;2022-09-09T05:29:20;3.65;;;2.20;;
19863;SDS011;10094;48.820;9.226;2022-09-09T05:36:16;6.95;;;2.20;;
19863;SDS011;10094;48.820;9.226;2022-09-09T05:43:01;5.07;;;2.10;;
19863;SDS011;10094;48.820;9.226;2022-09-09T05:49:44;7.78;;;2.58;;
19863;SDS011;10094;48.820;9.226;2022-09-09T05:56:28;4.97;;;2.00;;
19863;SDS011;10094;48.820;9.226;2022-09-09T06:03:13;3.55;;;1.98;;
19863;SDS011;10094;48.820;9.226;2022-09-09T06:09:56;4.65;;;1.98;;
19863;SDS011;10094;48.820;9.226;2022-09-09T06:16:38;6.80;;;1.85;;
19863;SDS011;10094;48.820;9.226;2022-09-09T06:23:29;7.25;;;2.17;;
19863;SDS011;10094;48.820;9.226;2022-09-09T06:30:12;5.25;;;1.80;;
19863;SDS011;10094;48.820;9.226;2022-09-09T06:36:56;3.72;;;1.70;;
19863;SDS011;10094;48.820;9.226;2022-09-09T06:43:44;3.45;;;1.80;;
19863;SDS011;10094;48.820;9.226;2022-09-09T06:50:27;4.20;;;2.00;;
19863;SDS011;10094;48.820;9.226;2022-09-09T06:57:10;9.80;;;2.28;;
19863;SDS011;10094;48.820;9.226;2022-09-09T07:04:12;5.93;;;2.20;;
19863;SDS011;10094;48.820;9.226;2022-09-09T07:11:04;7.70;;;2.55;;
19863;SDS011;10094;48.820;9.226;2022-09-09T07:17:54;5.45;;;1.98;;
19863;SDS011;10094;48.820;9.226;2022-09-09T07:24:37;3.50;;;2.03;;
19863;SDS011;10094;48.820;9.226;2022-09-09T07:31:21;4.38;;;1.70;;
19863;SDS011;10094;48.820;9.226;2022-09-09T07:38:06;5.88;;;2.28;;
19863;SDS011;10094;48.820;9.226;2022-09-09T07:44:49;3.78;;;1.92;;
19863;SDS011;10094;48.820;9.226;2022-09-09T07:51:32;4.90;;;2.00;;
19863;SDS011;10094;48.820;9.226;2022-09-09T07:58:20;4.57;;;2.05;;
19863;SDS011;10094;48.820;9.226;2022-09-09T08:05:03;7.22;;;2.17;;
19863;SDS011;10094;48.820;9.226;2022-09-09T08:11:48;6.20;;;2.70;;
19863;SDS011;10094;48.820;9.226;2022-09-09T08:18:31;4.88;;;2.17;;
19863;SDS011;10094;48.820;9.226;2022-09-09T08:25:14;5.03;;;2.20;;
19863;SDS011;10094;48.820;9.226;2022-09-09T08:31:57;4.32;;;1.73;;
19863;SDS011;10094;48.820;9.226;2022-09-09T08:38:42;6.95;;;2.00;;
19863;SDS011;10094;48.820;9.226;2022-09-09T08:45:27;3.92;;;1.75;;
19863;SDS011;10094;48.820;9.226;2022-09-09T08:52:25;4.55;;;1.70;;
19863;SDS011;10094;48.820;9.226;2022-09-09T08:59:15;4.63;;;1.95;;
19863;SDS011;10094;48.820;9.226;2022-09-09T09:12:52;3.42;;;1.63;;
19863;SDS011;10094;48.820;9.226;2022-09-09T09:19:38;3.15;;;1.38;;
19863;SDS011;10094;48.820;9.226;2022-09-09T09:26:25;5.00;;;1.95;;
19863;SDS011;10094;48.820;9.226;2022-09-09T09:33:22;4.45;;;1.80;;
19863;SDS011;10094;48.820;9.226;2022-09-09T09:40:11;4.03;;;1.60;;
19863;SDS011;10094;48.820;9.226;2022-09-09T10:00:55;1.88;;;1.00;;
19863;SDS011;10094;48.820;9.226;2022-09-09T10:07:41;2.35;;;1.15;;
19863;SDS011;10094;48.820;9.226;2022-09-09T10:14:37;3.13;;;1.23;;
19863;SDS011;10094;48.820;9.226;2022-09-09T10:29:36;4.38;;;1.65;;
19863;SDS011;10094;48.820;9.226;2022-09-09T10:36:29;2.80;;;1.33;;
19863;SDS011;10094;48.820;9.226;2022-09-09T10:43:14;3.63;;;1.60;;
19863;SDS011;10094;48.820;9.226;2022-09-09T10:50:27;4.88;;;1.73;;
19863;SDS011;10094;48.820;9.226;2022-09-09T10:57:47;1.88;;;1.42;;
19863;SDS011;10094;48.820;9.226;2022-09-09T11:04:33;4.13;;;1.25;;
19863;SDS011;10094;48.820;9.226;2022-09-09T11:11:47;5.75;;;1.85;;
19863;SDS011;10094;48.820;9.226;2022-09-09T11:18:36;3.33;;;1.60;;
19863;SDS011;10094;48.820;9.226;2022-09-09T11:25:26;4.30;;;1.73;;
19863;SDS011;10094;48.820;9.226;2022-09-09T11:46:33;4.90;;;1.10;;
19863;SDS011;10094;48.820;9.226;2022-09-09T11:53:20;1.17;;;0.90;;
19863;SDS011;10094;48.820;9.226;2022-09-09T12:00:04;2.85;;;1.20;;
19863;SDS011;10094;48.820;9.226;2022-09-09T12:13:52;1.15;;;0.90;;
19863;SDS011;10094;48.820;9.226;2022-09-09T12:20:39;0.98;;;0.70;;
19863;SDS011;10094;48.820;9.226;2022-09-09T12:35:02;3.33;;;1.05;;
19863;SDS011;10094;48.820;9.226;2022-09-09T12:41:54;1.88;;;0.70;;
19863;SDS011;10094;48.820;9.226;2022-09-09T12:48:38;2.60;;;0.90;;
19863;SDS011;10094;48.820;9.226;2022-09-09T12:55:30;1.55;;;0.98;;
19863;SDS011;10094;48.820;9.226;2022-09-09T13:02:21;4.20;;;1.33;;
19863;SDS011;10094;48.820;9.226;2022-09-09T13:09:08;2.83;;;1.10;;
19863;SDS011;10094;48.820;9.226;2022-09-09T13:15:55;1.83;;;1.00;;
19863;SDS011;10094;48.820;9.226;2022-09-09T13:22:39;2.72;;;1.10;;
19863;SDS011;10094;48.820;9.226;2022-09-09T13:29:22;2.85;;;0.93;;
19863;SDS011;10094;48.820;9.226;2022-09-09T13:36:09;3.17;;;1.13;;
19863;SDS011;10094;48.820;9.226;2022-09-09T13:42:54;2.42;;;1.00;;
19863;SDS011;10094;48.820;9.226;2022-09-09T13:49:38;1.42;;;0.90;;
19863;SDS011;10094;48.820;9.226;2022-09-09T13:56:20;2.17;;;1.20;;
19863;SDS011;10094;48.820;9.226;2022-09-09T14:03:02;0.93;;;0.73;;
19863;SDS011;10094;48.820;9.226;2022-09-09T14:09:45;5.07;;;1.30;;
19863;SDS011;10094;48.820;9.226;2022-09-09T14:16:31;3.10;;;1.40;;
19863;SDS011;10094;48.820;9.226;2022-09-09T14:23:14;2.17;;;1.02;;
19863;SDS011;10094;48.820;9.226;2022-09-09T14:29:57;1.70;;;0.90;;
19863;SDS011;10094;48.820;9.226;2022-09-09T14:36:39;2.47;;;1.17;;
19863;SDS011;10094;48.820;9.226;2022-09-09T14:43:23;3.83;;;1.45;;
19863;SDS011;10094;48.820;9.226;2022-09-09T14:50:05;2.40;;;1.30;;
19863;SDS011;10094;48.820;9.226;2022-09-09T14:56:49;2.28;;;1.10;;
19863;SDS011;10094;48.820;9.226;2022-09-09T15:03:32;1.85;;;0.68;;
19863;SDS011;10094;48.820;9.226;2022-09-09T15:10:15;0.95;;;0.70;;
19863;SDS011;10094;48.820;9.226;2022-09-09T15:16:58;2.33;;;0.73;;
19863;SDS011;10094;48.820;9.226;2022-09-09T15:23:41;2.85;;;1.15;;
19863;SDS011;10094;48.820;9.226;2022-09-09T15:30:24;2.40;;;1.20;;
19863;SDS011;10094;48.820;9.226;2022-09-09T15:37:09;3.03;;;1.13;;
19863;SDS011;10094;48.820;9.226;2022-09-09T15:43:53;2.20;;;1.20;;
19863;SDS011;10094;48.820;9.226;2022-09-09T15:50:40;2.28;;;1.15;;
19863;SDS011;10094;48.820;9.226;2022-09-09T15:57:23;4.53;;;1.40;;
19863;SDS011;10094;48.820;9.226;2022-09-09T16:04:05;2.58;;;1.50;;
19863;SDS011;10094;48.820;9.226;2022-09-09T16:10:48;1.95;;;1.13;;
19863;SDS011;10094;48.820;9.226;2022-09-09T16:17:30;3.88;;;1.48;;
19863;SDS011;10094;48.820;9.226;2022-09-09T16:24:19;3.20;;;1.30;;
19863;SDS011;10094;48.820;9.226;2022-09-09T16:31:09;3.55;;;1.30;;
19863;SDS011;10094;48.820;9.226;2022-09-09T16:37:54;2.92;;;1.27;;
19863;SDS011;10094;48.820;9.226;2022-09-09T16:44:38;1.45;;;0.65;;
19863;SDS011;10094;48.820;9.226;2022-09-09T16:51:25;2.38;;;0.73;;
19863;SDS011;10094;48.820;9.226;2022-09-09T16:58:12;2.10;;;1.10;;
19863;SDS011;10094;48.820;9.226;2022-09-09T17:04:54;0.63;;;0.55;;
19863;SDS011;10094;48.820;9.226;2022-09-09T17:11:37;2.95;;;1.02;;
19863;SDS011;10094;48.820;9.226;2022-09-09T17:18:20;2.65;;;1.00;;
19863;SDS011;10094;48.820;9.226;2022-09-09T17:25:04;1.00;;;0.80;;
19863;SDS011;10094;48.820;9.226;2022-09-09T17:31:47;1.35;;;0.90;;
19863;SDS011;10094;48.820;9.226;2022-09-09T17:38:29;5.18;;;1.73;;
19863;SDS011;10094;48.820;9.226;2022-09-09T17:45:12;4.30;;;2.15;;
19863;SDS011;10094;48.820;9.226;2022-09-09T17:51:54;1.90;;;1.10;;
19863;SDS011;10094;48.820;9.226;2022-09-09T17:58:38;4.05;;;1.52;;
19863;SDS011;10094;48.820;9.226;2022-09-09T18:05:20;2.67;;;1.13;;
19863;SDS011;10094;48.820;9.226;2022-09-09T18:12:03;2.40;;;1.10;;
19863;SDS011;10094;48.820;9.226;2022-09-09T18:18:45;2.15;;;1.10;;
19863;SDS011;10094;48.820;9.226;2022-09-09T18:25:28;3.35;;;1.20;;
19863;SDS011;10094;48.820;9.226;2022-09-09T18:32:10;3.78;;;1.40;;
19863;SDS011;10094;48.820;9.226;2022-09-09T18:38:53;2.20;;;1.30;;
19863;SDS011;10094;48.820;9.226;2022-09-09T18:45:37;2.08;;;1.13;;
19863;SDS011;10094;48.820;9.226;2022-09-09T18:52:20;2.53;;;1.17;;
19863;SDS011;10094;48.820;9.226;2022-09-09T18:59:04;3.17;;;1.50;;
19863;SDS011;10094;48.820;9.226;2022-09-09T19:05:47;3.45;;;2.05;;
19863;SDS011;10094;48.820;9.226;2022-09-09T19:12:32;3.10;;;1.60;;
19863;SDS011;10094;48.820;9.226;2022-09-09T19:19:16;2.75;;;0.90;;
19863;SDS011;10094;48.820;9.226;2022-09-09T19:26:00;1.48;;;1.00;;
19863;SDS011;10094;48.820;9.226;2022-09-09T19:32:43;3.80;;;1.30;;
19863;SDS011;10094;48.820;9.226;2022-09-09T19:39:35;3.67;;;1.58;;
19863;SDS011;10094;48.820;9.226;2022-09-09T19:46:17;2.17;;;1.45;;
19863;SDS011;10094;48.820;9.226;2022-09-09T19:53:00;5.18;;;1.73;;
19863;SDS011;10094;48.820;9.226;2022-09-09T19:59:42;2.25;;;1.30;;
19863;SDS011;10094;48.820;9.226;2022-09-09T20:06:25;2.70;;;1.75;;
19863;SDS011;10094;48.820;9.226;2022-09-09T20:13:10;2.30;;;1.30;;
19863;SDS011;10094;48.820;9.226;2022-09-09T20:19:52;4.72;;;1.73;;
19863;SDS011;10094;48.820;9.226;2022-09-09T20:26:35;5.28;;;2.50;;
19863;SDS011;10094;48.820;9.226;2022-09-09T20:33:18;5.60;;;2.60;;
19863;SDS011;10094;48.820;9.226;2022-09-09T20:40:02;3.60;;;1.50;;
19863;SDS011;10094;48.820;9.226;2022-09-09T20:46:48;3.55;;;2.25;;
19863;SDS011;10094;48.820;9.226;2022-09-09T20:53:32;3.10;;;1.63;;
19863;SDS011;10094;48.820;9.226;2022-09-09T21:00:15;2.75;;;1.60;;
19863;SDS011;10094;48.820;9.226;2022-09-09T21:06:58;1.45;;;1.33;;
19863;SDS011;10094;48.820;9.226;2022-09-09T21:13:41;2.13;;;1.35;;
19863;SDS011;10094;48.820;9.226;2022-09-09T21:20:24;6.03;;;1.88;;
19863;SDS011;10094;48.820;9.226;2022-09-09T21:27:06;2.53;;;1.33;;
19863;SDS011;10094;48.820;9.226;2022-09-09T21:33:49;2.88;;;1.50;;
19863;SDS011;10094;48.820;9.226;2022-09-09T21:40:35;5.68;;;2.10;;
19863;SDS011;10094;48.820;9.226;2022-09-09T21:47:18;2.70;;;1.83;;
19863;SDS011;10094;48.820;9.226;2022-09-09T21:54:01;4.18;;;1.90;;
19863;SDS011;10094;48.820;9.226;2022-09-09T22:00:44;2.90;;;1.65;;
19863;SDS011;10094;48.820;9.226;2022-09-09T22:07:28;3.22;;;1.88;;
19863;SDS011;10094;48.820;9.226;2022-09-09T22:14:10;2.10;;;1.58;;
19863;SDS011;10094;48.820;9.226;2022-09-09T22:20:53;5.32;;;1.90;;
19863;SDS011;10094;48.820;9.226;2022-09-09T22:27:36;5.28;;;2.42;;
19863;SDS011;10094;48.820;9.226;2022-09-09T22:34:18;2.60;;;1.40;;
19863;SDS011;10094;48.820;9.226;2022-09-09T22:41:03;4.35;;;1.45;;
19863;SDS011;10094;48.820;9.226;2022-09-09T22:47:46;2.47;;;1.38;;
19863;SDS011;10094;48.820;9.226;2022-09-09T22:54:29;2.60;;;1.27;;
19863;SDS011;10094;48.820;9.226;2022-09-09T23:01:12;3.50;;;1.60;;
19863;SDS011;10094;48.820;9.226;2022-09-09T23:07:57;3.40;;;1.75;;
19863;SDS011;10094;48.820;9.226;2022-09-09T23:14:39;2.95;;;1.50;;
19863;SDS011;10094;48.820;9.226;2022-09-09T23:21:22;3.53;;;2.05;;
19863;SDS011;10094;48.820;9.226;2022-09-09T23:28:06;3.35;;;1.50;;
19863;SDS011;10094;48.820;9.226;2022-09-09T23:34:49;3.03;;;1.20;;
19863;SDS011;10094;48.820;9.226;2022-09-09T23:41:32;4.43;;;1.50;;
19863;SDS011;10094;48.820;9.226;2022-09-09T23:48:16;4.60;;;1.50;;
19863;SDS011;10094;48.820;9.226;2022-09-09T23:54:59;3.13;;;2.20;;
